sensor_id;sensor_type;location;lat;lon;timestamp;pressure;altitude;pressure_sealevel;temperature;humidity
23281;BME280;11809;56.390;-3.266;2023-06-10T00:02:26;101615.03;;;16.67;62.26
23281;BME280;11809;56.390;-3.266;2023-06-10T00:04:54;101609.72;;;16.67;62.18
23281;BME280;11809;56.390;-3.266;2023-06-10T00:07:22;101607.00;;;16.68;62.35
23281;BME280;11809;56.390;-3.266;2023-06-10T00:09:49;101608.03;;;16.66;62.08
23281;BME280;11809;56.390;-3.266;2023-06-10T00:12:17;101613.41;;;16.64;62.31
23281;BME280;11809;56.390;-3.266;2023-06-10T00:14:44;101606.44;;;16.62;62.28
23281;BME280;11809;56.390;-3.266;2023-06-10T00:17:12;101612.63;;;16.62;62.36
23281;BME280;11809;56.390;-3.266;2023-06-10T00:19:39;101613.34;;;16.66;62.32
23281;BME280;11809;56.390;-3.266;2023-06-10T00:22:08;101618.47;;;16.69;62.34
23281;BME280;11809;56.390;-3.266;2023-06-10T00:24:39;101610.59;;;16.67;62.39
23281;BME280;11809;56.390;-3.266;2023-06-10T00:27:06;101611.47;;;16.68;62.35
23281;BME280;11809;56.390;-3.266;2023-06-10T00:29:34;101622.06;;;16.68;62.16
23281;BME280;11809;56.390;-3.266;2023-06-10T00:32:01;101624.00;;;16.64;62.33
23281;BME280;11809;56.390;-3.266;2023-06-10T00:34:29;101624.72;;;16.68;62.24
23281;BME280;11809;56.390;-3.266;2023-06-10T00:36:57;101617.06;;;16.62;62.33
23281;BME280;11809;56.390;-3.266;2023-06-10T00:39:24;101627.69;;;16.62;62.22
23281;BME280;11809;56.390;-3.266;2023-06-10T00:41:51;101624.09;;;16.63;62.17
23281;BME280;11809;56.390;-3.266;2023-06-10T00:44:19;101620.50;;;16.64;62.39
23281;BME280;11809;56.390;-3.266;2023-06-10T00:46:47;101616.13;;;16.63;62.37
23281;BME280;11809;56.390;-3.266;2023-06-10T00:49:15;101620.50;;;16.64;62.40
23281;BME280;11809;56.390;-3.266;2023-06-10T00:51:43;101614.25;;;16.65;62.23
23281;BME280;11809;56.390;-3.266;2023-06-10T00:54:11;101603.69;;;16.63;62.26
23281;BME280;11809;56.390;-3.266;2023-06-10T00:56:41;101610.75;;;16.64;62.20
23281;BME280;11809;56.390;-3.266;2023-06-10T00:59:10;101606.34;;;16.63;62.38
23281;BME280;11809;56.390;-3.266;2023-06-10T01:01:37;101605.53;;;16.63;62.18
23281;BME280;11809;56.390;-3.266;2023-06-10T01:04:06;101596.84;;;16.59;62.18
23281;BME280;11809;56.390;-3.266;2023-06-10T01:09:29;101601.28;;;16.59;62.31
23281;BME280;11809;56.390;-3.266;2023-06-10T01:12:05;101591.53;;;16.59;62.40
23281;BME280;11809;56.390;-3.266;2023-06-10T01:14:36;101592.41;;;16.60;62.26
23281;BME280;11809;56.390;-3.266;2023-06-10T01:17:06;101597.63;;;16.61;62.19
23281;BME280;11809;56.390;-3.266;2023-06-10T01:19:36;101589.75;;;16.60;62.14
23281;BME280;11809;56.390;-3.266;2023-06-10T01:22:04;101583.66;;;16.58;62.38
23281;BME280;11809;56.390;-3.266;2023-06-10T01:24:32;101588.97;;;16.58;62.41
23281;BME280;11809;56.390;-3.266;2023-06-10T01:27:04;101592.41;;;16.60;62.36
23281;BME280;11809;56.390;-3.266;2023-06-10T01:29:37;101593.25;;;16.60;62.31
23281;BME280;11809;56.390;-3.266;2023-06-10T01:32:11;101602.06;;;16.61;62.31
23281;BME280;11809;56.390;-3.266;2023-06-10T01:34:42;101592.56;;;16.57;62.35
23281;BME280;11809;56.390;-3.266;2023-06-10T01:37:13;101590.66;;;16.59;62.25
23281;BME280;11809;56.390;-3.266;2023-06-10T01:39:42;101587.25;;;16.57;62.21
23281;BME280;11809;56.390;-3.266;2023-06-10T01:42:11;101599.66;;;16.56;62.44
23281;BME280;11809;56.390;-3.266;2023-06-10T01:44:39;101599.59;;;16.58;62.41
23281;BME280;11809;56.390;-3.266;2023-06-10T01:47:06;101597.72;;;16.60;62.37
23281;BME280;11809;56.390;-3.266;2023-06-10T01:49:33;101594.28;;;16.58;62.21
23281;BME280;11809;56.390;-3.266;2023-06-10T01:52:00;101596.06;;;16.57;62.52
23281;BME280;11809;56.390;-3.266;2023-06-10T01:54:27;101588.31;;;16.53;62.43
23281;BME280;11809;56.390;-3.266;2023-06-10T01:56:54;101599.13;;;16.48;62.45
23281;BME280;11809;56.390;-3.266;2023-06-10T01:59:21;101592.97;;;16.48;62.52
23281;BME280;11809;56.390;-3.266;2023-06-10T02:01:48;101592.97;;;16.48;62.41
23281;BME280;11809;56.390;-3.266;2023-06-10T02:04:15;101592.13;;;16.47;62.55
23281;BME280;11809;56.390;-3.266;2023-06-10T02:06:43;101597.44;;;16.47;62.45
23281;BME280;11809;56.390;-3.266;2023-06-10T02:09:10;101594.84;;;16.46;62.64
23281;BME280;11809;56.390;-3.266;2023-06-10T02:11:37;101593.97;;;16.45;62.44
23281;BME280;11809;56.390;-3.266;2023-06-10T02:14:04;101601.00;;;16.46;62.38
23281;BME280;11809;56.390;-3.266;2023-06-10T02:16:32;101598.13;;;16.51;62.38
23281;BME280;11809;56.390;-3.266;2023-06-10T02:18:59;101603.56;;;16.48;62.47
23281;BME280;11809;56.390;-3.266;2023-06-10T02:21:27;101594.84;;;16.46;62.43
23281;BME280;11809;56.390;-3.266;2023-06-10T02:23:54;101594.84;;;16.46;62.51
23281;BME280;11809;56.390;-3.266;2023-06-10T02:26:21;101596.56;;;16.47;62.53
23281;BME280;11809;56.390;-3.266;2023-06-10T02:28:49;101600.16;;;16.46;62.56
23281;BME280;11809;56.390;-3.266;2023-06-10T02:31:17;101597.50;;;16.46;62.47
23281;BME280;11809;56.390;-3.266;2023-06-10T02:33:45;101594.97;;;16.43;62.49
23281;BME280;11809;56.390;-3.266;2023-06-10T02:36:12;101589.78;;;16.41;62.41
23281;BME280;11809;56.390;-3.266;2023-06-10T02:38:42;101585.47;;;16.38;62.60
23281;BME280;11809;56.390;-3.266;2023-06-10T02:41:09;101583.75;;;16.37;62.51
23281;BME280;11809;56.390;-3.266;2023-06-10T02:43:36;101582.03;;;16.36;62.62
23281;BME280;11809;56.390;-3.266;2023-06-10T02:46:03;101583.75;;;16.37;62.58
23281;BME280;11809;56.390;-3.266;2023-06-10T02:48:30;101581.03;;;16.39;62.68
23281;BME280;11809;56.390;-3.266;2023-06-10T02:50:57;101575.63;;;16.41;62.37
23281;BME280;11809;56.390;-3.266;2023-06-10T02:53:24;101576.56;;;16.39;62.48
23281;BME280;11809;56.390;-3.266;2023-06-10T02:55:51;101581.94;;;16.38;62.53
23281;BME280;11809;56.390;-3.266;2023-06-10T02:58:18;101582.88;;;16.37;62.54
23281;BME280;11809;56.390;-3.266;2023-06-10T03:00:45;101577.66;;;16.35;62.65
23281;BME280;11809;56.390;-3.266;2023-06-10T03:03:12;101581.09;;;16.37;62.73
23281;BME280;11809;56.390;-3.266;2023-06-10T03:05:39;101579.38;;;16.36;62.53
23281;BME280;11809;56.390;-3.266;2023-06-10T03:08:07;101580.16;;;16.38;62.67
23281;BME280;11809;56.390;-3.266;2023-06-10T03:10:34;101581.94;;;16.38;62.70
23281;BME280;11809;56.390;-3.266;2023-06-10T03:13:01;101585.47;;;16.38;62.85
23281;BME280;11809;56.390;-3.266;2023-06-10T03:15:28;101581.94;;;16.38;62.76
23281;BME280;11809;56.390;-3.266;2023-06-10T03:18:00;101582.97;;;16.35;62.67
23281;BME280;11809;56.390;-3.266;2023-06-10T03:20:27;101585.63;;;16.35;62.69
23281;BME280;11809;56.390;-3.266;2023-06-10T03:22:55;101580.31;;;16.35;62.61
23281;BME280;11809;56.390;-3.266;2023-06-10T03:25:22;101582.19;;;16.33;62.52
23281;BME280;11809;56.390;-3.266;2023-06-10T03:27:49;101578.72;;;16.31;62.68
23281;BME280;11809;56.390;-3.266;2023-06-10T03:30:16;101583.25;;;16.29;62.69
23281;BME280;11809;56.390;-3.266;2023-06-10T03:32:43;101572.59;;;16.31;62.71
23281;BME280;11809;56.390;-3.266;2023-06-10T03:35:11;101570.94;;;16.28;62.71
23281;BME280;11809;56.390;-3.266;2023-06-10T03:37:38;101562.03;;;16.29;62.74
23281;BME280;11809;56.390;-3.266;2023-06-10T03:40:06;101575.38;;;16.28;62.64
23281;BME280;11809;56.390;-3.266;2023-06-10T03:42:37;101571.88;;;16.27;62.65
23281;BME280;11809;56.390;-3.266;2023-06-10T03:45:04;101563.03;;;16.27;62.74
23281;BME280;11809;56.390;-3.266;2023-06-10T03:47:36;101567.50;;;16.26;62.76
23281;BME280;11809;56.390;-3.266;2023-06-10T03:50:04;101575.44;;;16.26;62.86
23281;BME280;11809;56.390;-3.266;2023-06-10T03:52:32;101576.25;;;16.28;62.86
23281;BME280;11809;56.390;-3.266;2023-06-10T03:54:59;101566.66;;;16.26;62.79
23281;BME280;11809;56.390;-3.266;2023-06-10T03:57:26;101571.97;;;16.26;62.79
23281;BME280;11809;56.390;-3.266;2023-06-10T03:59:53;101571.09;;;16.25;62.72
23281;BME280;11809;56.390;-3.266;2023-06-10T04:02:22;101570.13;;;16.26;63.09
23281;BME280;11809;56.390;-3.266;2023-06-10T04:04:49;101565.78;;;16.25;63.00
23281;BME280;11809;56.390;-3.266;2023-06-10T04:07:17;101562.19;;;16.26;62.71
23281;BME280;11809;56.390;-3.266;2023-06-10T04:09:47;101564.94;;;16.25;62.79
23281;BME280;11809;56.390;-3.266;2023-06-10T04:12:14;101557.88;;;16.24;62.70
23281;BME280;11809;56.390;-3.266;2023-06-10T04:14:41;101559.63;;;16.25;62.77
23281;BME280;11809;56.390;-3.266;2023-06-10T04:17:08;101563.13;;;16.25;62.91
23281;BME280;11809;56.390;-3.266;2023-06-10T04:19:36;101560.53;;;16.24;62.67
23281;BME280;11809;56.390;-3.266;2023-06-10T04:22:04;101555.31;;;16.22;62.81
23281;BME280;11809;56.390;-3.266;2023-06-10T04:24:31;101559.75;;;16.22;62.78
23281;BME280;11809;56.390;-3.266;2023-06-10T04:26:59;101558.91;;;16.21;62.92
23281;BME280;11809;56.390;-3.266;2023-06-10T04:29:26;101559.75;;;16.22;62.81
23281;BME280;11809;56.390;-3.266;2023-06-10T04:31:53;101558.13;;;16.19;63.04
23281;BME280;11809;56.390;-3.266;2023-06-10T04:34:20;101559.84;;;16.20;62.84
23281;BME280;11809;56.390;-3.266;2023-06-10T04:36:47;101557.97;;;16.22;62.91
23281;BME280;11809;56.390;-3.266;2023-06-10T04:39:14;101561.50;;;16.23;62.82
23281;BME280;11809;56.390;-3.266;2023-06-10T04:41:43;101561.41;;;16.24;63.00
23281;BME280;11809;56.390;-3.266;2023-06-10T04:44:10;101554.56;;;16.20;62.76
23281;BME280;11809;56.390;-3.266;2023-06-10T04:46:38;101555.25;;;16.24;62.80
23281;BME280;11809;56.390;-3.266;2023-06-10T04:49:05;101560.63;;;16.22;62.74
23281;BME280;11809;56.390;-3.266;2023-06-10T04:51:32;101557.97;;;16.22;62.87
23281;BME280;11809;56.390;-3.266;2023-06-10T04:53:59;101552.72;;;16.21;62.84
23281;BME280;11809;56.390;-3.266;2023-06-10T04:56:31;101547.38;;;16.22;62.77
23281;BME280;11809;56.390;-3.266;2023-06-10T04:58:58;101549.16;;;16.22;62.60
23281;BME280;11809;56.390;-3.266;2023-06-10T05:01:25;101550.88;;;16.23;62.56
23281;BME280;11809;56.390;-3.266;2023-06-10T05:03:53;101550.88;;;16.23;62.64
23281;BME280;11809;56.390;-3.266;2023-06-10T05:06:20;101547.38;;;16.22;62.71
23281;BME280;11809;56.390;-3.266;2023-06-10T05:08:47;101544.72;;;16.22;62.66
23281;BME280;11809;56.390;-3.266;2023-06-10T05:11:14;101550.88;;;16.23;62.57
23281;BME280;11809;56.390;-3.266;2023-06-10T05:13:42;101545.59;;;16.23;62.61
23281;BME280;11809;56.390;-3.266;2023-06-10T05:16:09;101541.13;;;16.23;62.67
23281;BME280;11809;56.390;-3.266;2023-06-10T05:18:36;101547.38;;;16.22;62.59
23281;BME280;11809;56.390;-3.266;2023-06-10T05:21:03;101542.84;;;16.24;62.95
23281;BME280;11809;56.390;-3.266;2023-06-10T05:23:30;101548.72;;;16.31;63.06
23281;BME280;11809;56.390;-3.266;2023-06-10T05:25:57;101552.88;;;16.36;63.12
23281;BME280;11809;56.390;-3.266;2023-06-10T05:28:25;101547.38;;;16.39;63.15
23281;BME280;11809;56.390;-3.266;2023-06-10T05:30:52;101554.25;;;16.44;63.23
23281;BME280;11809;56.390;-3.266;2023-06-10T05:33:19;101554.13;;;16.47;63.31
23281;BME280;11809;56.390;-3.266;2023-06-10T05:35:46;101549.59;;;16.49;63.37
23281;BME280;11809;56.390;-3.266;2023-06-10T05:38:13;101549.50;;;16.50;63.46
23281;BME280;11809;56.390;-3.266;2023-06-10T05:40:41;101553.75;;;16.54;63.41
23281;BME280;11809;56.390;-3.266;2023-06-10T05:43:08;101556.41;;;16.54;63.54
23281;BME280;11809;56.390;-3.266;2023-06-10T05:45:37;101555.41;;;16.57;63.88
23281;BME280;11809;56.390;-3.266;2023-06-10T05:48:04;101554.47;;;16.58;63.87
23281;BME280;11809;56.390;-3.266;2023-06-10T05:50:33;101556.16;;;16.59;63.69
23281;BME280;11809;56.390;-3.266;2023-06-10T05:53:05;101558.81;;;16.59;63.64
23281;BME280;11809;56.390;-3.266;2023-06-10T05:55:33;101555.25;;;16.60;63.62
23281;BME280;11809;56.390;-3.266;2023-06-10T05:58:01;101562.25;;;16.61;63.59
23281;BME280;11809;56.390;-3.266;2023-06-10T06:00:28;101552.50;;;16.61;63.54
23281;BME280;11809;56.390;-3.266;2023-06-10T06:02:55;101557.81;;;16.61;63.54
23281;BME280;11809;56.390;-3.266;2023-06-10T06:05:24;101546.28;;;16.62;63.58
23281;BME280;11809;56.390;-3.266;2023-06-10T06:07:52;101558.69;;;16.62;63.56
23281;BME280;11809;56.390;-3.266;2023-06-10T06:10:19;101558.53;;;16.65;63.44
23281;BME280;11809;56.390;-3.266;2023-06-10T06:12:47;101556.78;;;16.64;63.41
23281;BME280;11809;56.390;-3.266;2023-06-10T06:15:14;101562.25;;;16.61;63.37
23281;BME280;11809;56.390;-3.266;2023-06-10T06:17:41;101557.75;;;16.63;63.47
23281;BME280;11809;56.390;-3.266;2023-06-10T06:20:08;101547.03;;;16.64;63.45
23281;BME280;11809;56.390;-3.266;2023-06-10T06:22:35;101554.00;;;16.67;63.68
23281;BME280;11809;56.390;-3.266;2023-06-10T06:25:03;101553.94;;;16.68;63.84
23281;BME280;11809;56.390;-3.266;2023-06-10T06:27:31;101554.75;;;16.69;63.91
23281;BME280;11809;56.390;-3.266;2023-06-10T06:29:58;101556.19;;;16.76;63.74
23281;BME280;11809;56.390;-3.266;2023-06-10T06:32:26;101550.00;;;16.75;63.84
23281;BME280;11809;56.390;-3.266;2023-06-10T06:34:54;101554.47;;;16.75;64.13
23281;BME280;11809;56.390;-3.266;2023-06-10T06:37:22;101540.25;;;16.76;63.99
23281;BME280;11809;56.390;-3.266;2023-06-10T06:39:51;101544.56;;;16.78;64.32
23281;BME280;11809;56.390;-3.266;2023-06-10T06:42:18;101549.72;;;16.81;64.64
23281;BME280;11809;56.390;-3.266;2023-06-10T06:44:48;101548.69;;;16.84;64.26
23281;BME280;11809;56.390;-3.266;2023-06-10T06:47:15;101553.84;;;16.87;63.66
23281;BME280;11809;56.390;-3.266;2023-06-10T06:49:47;101551.09;;;16.88;63.38
23281;BME280;11809;56.390;-3.266;2023-06-10T06:52:15;101544.91;;;16.88;63.51
23281;BME280;11809;56.390;-3.266;2023-06-10T06:54:42;101554.53;;;16.90;63.06
23281;BME280;11809;56.390;-3.266;2023-06-10T06:57:09;101550.94;;;16.91;62.85
23281;BME280;11809;56.390;-3.266;2023-06-10T06:59:37;101549.91;;;16.94;62.84
23281;BME280;11809;56.390;-3.266;2023-06-10T07:02:05;101544.53;;;16.95;62.95
23281;BME280;11809;56.390;-3.266;2023-06-10T07:04:32;101546.16;;;16.98;62.76
23281;BME280;11809;56.390;-3.266;2023-06-10T07:07:00;101552.25;;;17.00;62.72
23281;BME280;11809;56.390;-3.266;2023-06-10T07:09:27;101545.06;;;17.02;62.69
23281;BME280;11809;56.390;-3.266;2023-06-10T07:11:55;101549.47;;;17.03;62.46
23281;BME280;11809;56.390;-3.266;2023-06-10T07:14:22;101547.47;;;17.07;62.74
23281;BME280;11809;56.390;-3.266;2023-06-10T07:16:49;101548.25;;;17.09;62.63
23281;BME280;11809;56.390;-3.266;2023-06-10T07:19:16;101548.19;;;17.10;62.58
23281;BME280;11809;56.390;-3.266;2023-06-10T07:21:43;101549.88;;;17.11;62.90
23281;BME280;11809;56.390;-3.266;2023-06-10T07:24:10;101548.88;;;17.14;62.89
23281;BME280;11809;56.390;-3.266;2023-06-10T07:26:38;101546.13;;;17.15;62.77
23281;BME280;11809;56.390;-3.266;2023-06-10T07:29:05;101542.38;;;17.19;62.72
23281;BME280;11809;56.390;-3.266;2023-06-10T07:31:32;101542.31;;;17.21;62.72
23281;BME280;11809;56.390;-3.266;2023-06-10T07:33:59;101546.59;;;17.23;62.74
23281;BME280;11809;56.390;-3.266;2023-06-10T07:36:27;101539.38;;;17.25;62.71
23281;BME280;11809;56.390;-3.266;2023-06-10T07:38:55;101549.00;;;17.28;62.56
23281;BME280;11809;56.390;-3.266;2023-06-10T07:41:23;101552.50;;;17.28;62.67
23281;BME280;11809;56.390;-3.266;2023-06-10T07:43:54;101548.06;;;17.29;62.38
23281;BME280;11809;56.390;-3.266;2023-06-10T07:46:23;101552.34;;;17.31;62.33
23281;BME280;11809;56.390;-3.266;2023-06-10T07:48:51;101546.88;;;17.34;62.38
23281;BME280;11809;56.390;-3.266;2023-06-10T07:51:18;101550.41;;;17.35;62.61
23281;BME280;11809;56.390;-3.266;2023-06-10T07:53:46;101541.31;;;17.39;62.36
23281;BME280;11809;56.390;-3.266;2023-06-10T07:56:13;101541.31;;;17.39;62.39
23281;BME280;11809;56.390;-3.266;2023-06-10T07:58:40;101543.03;;;17.40;62.15
23281;BME280;11809;56.390;-3.266;2023-06-10T08:01:07;101547.31;;;17.42;61.93
23281;BME280;11809;56.390;-3.266;2023-06-10T08:03:35;101546.28;;;17.45;62.18
23281;BME280;11809;56.390;-3.266;2023-06-10T08:06:04;101542.63;;;17.47;62.18
23281;BME280;11809;56.390;-3.266;2023-06-10T08:08:32;101538.06;;;17.49;62.16
23281;BME280;11809;56.390;-3.266;2023-06-10T08:10:59;101536.16;;;17.51;62.10
23281;BME280;11809;56.390;-3.266;2023-06-10T08:13:26;101540.50;;;17.54;61.83
23281;BME280;11809;56.390;-3.266;2023-06-10T08:15:53;101539.47;;;17.56;61.73
23281;BME280;11809;56.390;-3.266;2023-06-10T08:18:22;101541.09;;;17.59;62.03
23281;BME280;11809;56.390;-3.266;2023-06-10T08:20:49;101543.69;;;17.61;61.96
23281;BME280;11809;56.390;-3.266;2023-06-10T08:23:16;101540.88;;;17.64;61.90
23281;BME280;11809;56.390;-3.266;2023-06-10T08:25:43;101543.34;;;17.67;61.95
23281;BME280;11809;56.390;-3.266;2023-06-10T08:28:10;101540.53;;;17.70;61.87
23281;BME280;11809;56.390;-3.266;2023-06-10T08:30:37;101542.22;;;17.71;61.71
23281;BME280;11809;56.390;-3.266;2023-06-10T08:33:04;101543.97;;;17.72;61.92
23281;BME280;11809;56.390;-3.266;2023-06-10T08:35:32;101540.00;;;17.79;61.62
23281;BME280;11809;56.390;-3.266;2023-06-10T08:37:59;101537.00;;;17.85;61.26
23281;BME280;11809;56.390;-3.266;2023-06-10T08:40:27;101536.75;;;17.89;61.41
23281;BME280;11809;56.390;-3.266;2023-06-10T08:45:30;101542.16;;;18.03;61.22
23281;BME280;11809;56.390;-3.266;2023-06-10T08:48:00;101543.03;;;18.04;60.32
23281;BME280;11809;56.390;-3.266;2023-06-10T08:50:29;101535.03;;;18.04;60.53
23281;BME280;11809;56.390;-3.266;2023-06-10T08:52:57;101543.94;;;18.03;60.60
23281;BME280;11809;56.390;-3.266;2023-06-10T08:55:33;101543.94;;;18.03;61.00
23281;BME280;11809;56.390;-3.266;2023-06-10T08:58:02;101539.31;;;18.06;60.61
23281;BME280;11809;56.390;-3.266;2023-06-10T09:00:31;101536.50;;;18.09;61.05
23281;BME280;11809;56.390;-3.266;2023-06-10T09:02:59;101535.25;;;18.15;60.86
23281;BME280;11809;56.390;-3.266;2023-06-10T09:05:33;101527.09;;;18.18;61.12
23281;BME280;11809;56.390;-3.266;2023-06-10T09:08:00;101531.38;;;18.21;60.80
23281;BME280;11809;56.390;-3.266;2023-06-10T09:10:29;101521.44;;;18.24;60.32
23281;BME280;11809;56.390;-3.266;2023-06-10T09:12:57;101518.88;;;18.23;59.91
23281;BME280;11809;56.390;-3.266;2023-06-10T09:15:24;101524.84;;;18.26;60.00
23281;BME280;11809;56.390;-3.266;2023-06-10T09:17:51;101520.31;;;18.28;59.66
23281;BME280;11809;56.390;-3.266;2023-06-10T09:20:20;101519.19;;;18.32;59.68
23281;BME280;11809;56.390;-3.266;2023-06-10T09:22:48;101530.59;;;18.34;59.83
23281;BME280;11809;56.390;-3.266;2023-06-10T09:25:16;101522.44;;;18.37;59.97
23281;BME280;11809;56.390;-3.266;2023-06-10T09:27:48;101521.41;;;18.40;59.48
23281;BME280;11809;56.390;-3.266;2023-06-10T09:30:27;101526.72;;;18.40;59.81
23281;BME280;11809;56.390;-3.266;2023-06-10T09:32:56;101531.19;;;18.39;59.80
23281;BME280;11809;56.390;-3.266;2023-06-10T09:35:25;101519.59;;;18.40;59.73
23281;BME280;11809;56.390;-3.266;2023-06-10T09:37:54;101516.06;;;18.40;59.34
23281;BME280;11809;56.390;-3.266;2023-06-10T09:40:22;101518.66;;;18.41;59.55
23281;BME280;11809;56.390;-3.266;2023-06-10T09:42:58;101514.00;;;18.45;59.67
23281;BME280;11809;56.390;-3.266;2023-06-10T09:45:32;101514.53;;;18.51;59.88
23281;BME280;11809;56.390;-3.266;2023-06-10T09:48:00;101509.03;;;18.54;59.94
23281;BME280;11809;56.390;-3.266;2023-06-10T09:50:27;101506.25;;;18.56;59.92
23281;BME280;11809;56.390;-3.266;2023-06-10T09:52:55;101505.59;;;18.52;59.35
23281;BME280;11809;56.390;-3.266;2023-06-10T09:55:23;101502.34;;;18.47;58.83
23281;BME280;11809;56.390;-3.266;2023-06-10T09:57:53;101499.69;;;18.47;59.76
23281;BME280;11809;56.390;-3.266;2023-06-10T10:00:22;101507.66;;;18.47;59.80
23281;BME280;11809;56.390;-3.266;2023-06-10T10:02:51;101496.31;;;18.44;60.11
23281;BME280;11809;56.390;-3.266;2023-06-10T10:05:20;101504.38;;;18.42;59.97
23281;BME280;11809;56.390;-3.266;2023-06-10T10:07:48;101503.53;;;18.42;59.77
23281;BME280;11809;56.390;-3.266;2023-06-10T10:10:19;101508.19;;;18.38;60.09
23281;BME280;11809;56.390;-3.266;2023-06-10T10:12:47;101497.63;;;18.37;60.13
23281;BME280;11809;56.390;-3.266;2023-06-10T10:15:16;101504.94;;;18.33;60.27
23281;BME280;11809;56.390;-3.266;2023-06-10T10:17:56;101509.41;;;18.33;60.18
23281;BME280;11809;56.390;-3.266;2023-06-10T10:20:27;101506.81;;;18.31;60.22
23281;BME280;11809;56.390;-3.266;2023-06-10T10:22:57;101502.53;;;18.29;59.92
23281;BME280;11809;56.390;-3.266;2023-06-10T10:25:45;101497.31;;;18.27;60.43
23281;BME280;11809;56.390;-3.266;2023-06-10T10:28:15;101499.97;;;18.27;60.51
23281;BME280;11809;56.390;-3.266;2023-06-10T10:30:52;101503.69;;;18.25;60.51
23281;BME280;11809;56.390;-3.266;2023-06-10T10:33:22;101504.59;;;18.24;60.36
23281;BME280;11809;56.390;-3.266;2023-06-10T10:35:53;101495.75;;;18.23;60.28
23281;BME280;11809;56.390;-3.266;2023-06-10T10:38:21;101493.31;;;18.20;60.68
23281;BME280;11809;56.390;-3.266;2023-06-10T10:40:48;101488.06;;;18.18;60.85
23281;BME280;11809;56.390;-3.266;2023-06-10T10:43:16;101490.72;;;18.18;60.62
23281;BME280;11809;56.390;-3.266;2023-06-10T10:45:46;101491.75;;;18.16;60.85
23281;BME280;11809;56.390;-3.266;2023-06-10T10:48:14;101492.63;;;18.16;60.91
23281;BME280;11809;56.390;-3.266;2023-06-10T10:50:41;101496.22;;;18.15;60.87
23281;BME280;11809;56.390;-3.266;2023-06-10T10:53:09;101489.09;;;18.16;60.89
23281;BME280;11809;56.390;-3.266;2023-06-10T10:55:36;101491.75;;;18.16;60.89
23281;BME280;11809;56.390;-3.266;2023-06-10T10:58:06;101481.13;;;18.16;61.05
23281;BME280;11809;56.390;-3.266;2023-06-10T11:00:43;101489.09;;;18.16;61.06
23281;BME280;11809;56.390;-3.266;2023-06-10T11:03:15;101484.72;;;18.15;61.17
23281;BME280;11809;56.390;-3.266;2023-06-10T11:05:46;101478.63;;;18.13;60.86
23281;BME280;11809;56.390;-3.266;2023-06-10T11:10:56;101475.97;;;18.13;61.08
23281;BME280;11809;56.390;-3.266;2023-06-10T11:13:25;101472.53;;;18.11;61.17
23281;BME280;11809;56.390;-3.266;2023-06-10T11:15:58;101469.88;;;18.11;61.16
23281;BME280;11809;56.390;-3.266;2023-06-10T11:18:26;101469.88;;;18.11;61.22
23281;BME280;11809;56.390;-3.266;2023-06-10T11:21:01;101472.53;;;18.11;61.32
23281;BME280;11809;56.390;-3.266;2023-06-10T11:26:30;101477.00;;;18.10;61.39
23281;BME280;11809;56.390;-3.266;2023-06-10T11:34:07;101466.38;;;18.10;61.28
23281;BME280;11809;56.390;-3.266;2023-06-10T11:36:40;101454.84;;;18.10;61.38
23281;BME280;11809;56.390;-3.266;2023-06-10T11:39:12;101459.81;;;18.16;61.07
23281;BME280;11809;56.390;-3.266;2023-06-10T11:41:40;101449.00;;;18.19;59.74
23281;BME280;11809;56.390;-3.266;2023-06-10T11:44:14;101451.38;;;18.24;59.95
23281;BME280;11809;56.390;-3.266;2023-06-10T11:46:47;101446.19;;;18.22;60.64
23281;BME280;11809;56.390;-3.266;2023-06-10T11:49:15;101448.47;;;18.28;60.41
23281;BME280;11809;56.390;-3.266;2023-06-10T11:51:42;101449.25;;;18.30;60.79
23281;BME280;11809;56.390;-3.266;2023-06-10T11:54:17;101445.34;;;18.36;59.78
23281;BME280;11809;56.390;-3.266;2023-06-10T11:56:46;101439.84;;;18.39;60.29
23281;BME280;11809;56.390;-3.266;2023-06-10T11:59:13;101430.84;;;18.41;59.90
23281;BME280;11809;56.390;-3.266;2023-06-10T12:01:45;101429.09;;;18.40;60.29
23281;BME280;11809;56.390;-3.266;2023-06-10T12:04:14;101427.31;;;18.41;60.71
23281;BME280;11809;56.390;-3.266;2023-06-10T12:06:50;101428.16;;;18.41;60.54
23281;BME280;11809;56.390;-3.266;2023-06-10T12:09:28;101432.78;;;18.53;59.76
23281;BME280;11809;56.390;-3.266;2023-06-10T12:12:03;101426.41;;;18.56;59.85
23281;BME280;11809;56.390;-3.266;2023-06-10T12:14:54;101421.19;;;18.54;60.13
23281;BME280;11809;56.390;-3.266;2023-06-10T12:17:42;101424.59;;;18.56;60.18
23281;BME280;11809;56.390;-3.266;2023-06-10T12:20:26;101427.25;;;18.56;60.43
23281;BME280;11809;56.390;-3.266;2023-06-10T12:22:54;101429.81;;;18.58;60.58
23281;BME280;11809;56.390;-3.266;2023-06-10T12:25:28;101439.63;;;18.57;60.09
23281;BME280;11809;56.390;-3.266;2023-06-10T12:27:57;101421.84;;;18.58;60.88
23281;BME280;11809;56.390;-3.266;2023-06-10T12:30:26;101421.75;;;18.59;60.44
23281;BME280;11809;56.390;-3.266;2023-06-10T12:32:53;101426.34;;;18.57;60.96
23281;BME280;11809;56.390;-3.266;2023-06-10T12:35:23;101417.56;;;18.55;60.85
23281;BME280;11809;56.390;-3.266;2023-06-10T12:37:59;101427.16;;;18.58;60.95
23281;BME280;11809;56.390;-3.266;2023-06-10T12:40:37;101419.66;;;18.64;60.15
23281;BME280;11809;56.390;-3.266;2023-06-10T12:43:07;101409.19;;;18.61;60.71
23281;BME280;11809;56.390;-3.266;2023-06-10T12:45:39;101415.47;;;18.60;60.80
23281;BME280;11809;56.390;-3.266;2023-06-10T12:50:44;101410.06;;;18.62;60.73
23281;BME280;11809;56.390;-3.266;2023-06-10T12:53:12;101406.34;;;18.64;60.48
23281;BME280;11809;56.390;-3.266;2023-06-10T12:55:39;101394.78;;;18.65;60.71
23281;BME280;11809;56.390;-3.266;2023-06-10T12:58:06;101397.13;;;18.70;60.16
23281;BME280;11809;56.390;-3.266;2023-06-10T13:00:33;101399.50;;;18.74;59.82
23281;BME280;11809;56.390;-3.266;2023-06-10T13:03:02;101399.81;;;18.70;58.95
23281;BME280;11809;56.390;-3.266;2023-06-10T13:05:29;101396.47;;;18.66;59.32
23281;BME280;11809;56.390;-3.266;2023-06-10T13:07:57;101385.81;;;18.66;59.80